sensor_id;sensor_type;location;lat;lon;timestamp;pressure;altitude;pressure_sealevel;temperature;humidity
57056;BME280;42945;51.718;5.324;2023-05-21T00:04:12;101610.31;;;11.65;100.00
57056;BME280;42945;51.718;5.324;2023-05-21T00:10:02;101652.44;;;11.91;100.00
57056;BME280;42945;51.718;5.324;2023-05-21T00:15:51;101495.72;;;11.01;100.00
57056;BME280;42945;51.718;5.324;2023-05-21T00:21:40;101527.34;;;11.06;100.00
57056;BME280;42945;51.718;5.324;2023-05-21T00:27:28;101506.75;;;11.28;100.00
57056;BME280;42945;51.718;5.324;2023-05-21T00:33:15;101597.94;;;11.82;100.00
57056;BME280;42945;51.718;5.324;2023-05-21T00:39:03;101579.03;;;12.06;100.00
57056;BME280;42945;51.718;5.324;2023-05-21T00:44:52;101623.09;;;12.28;100.00
57056;BME280;42945;51.718;5.324;2023-05-21T00:50:40;101470.84;;;11.56;100.00
57056;BME280;42945;51.718;5.324;2023-05-21T00:56:30;101716.94;;;12.82;100.00
57056;BME280;42945;51.718;5.324;2023-05-21T01:02:19;101481.56;;;11.37;100.00
57056;BME280;42945;51.718;5.324;2023-05-21T01:08:10;101496.38;;;11.58;100.00
57056;BME280;42945;51.718;5.324;2023-05-21T01:13:59;101712.59;;;12.97;100.00
57056;BME280;42945;51.718;5.324;2023-05-21T01:19:49;101600.13;;;12.09;100.00
57056;BME280;42945;51.718;5.324;2023-05-21T01:29:33;101575.59;;;12.04;100.00
57056;BME280;42945;51.718;5.324;2023-05-21T01:35:25;101610.81;;;11.90;100.00
57056;BME280;42945;51.718;5.324;2023-05-21T01:41:16;101492.91;;;11.04;100.00
57056;BME280;42945;51.718;5.324;2023-05-21T01:47:04;101597.59;;;11.71;100.00
57056;BME280;42945;51.718;5.324;2023-05-21T01:52:55;101707.97;;;12.15;100.00
57056;BME280;42945;51.718;5.324;2023-05-21T01:58:51;101500.41;;;10.96;100.00
57056;BME280;42945;51.718;5.324;2023-05-21T02:04:40;101543.50;;;11.55;100.00
57056;BME280;42945;51.718;5.324;2023-05-21T02:10:28;101657.44;;;11.61;100.00
57056;BME280;42945;51.718;5.324;2023-05-21T02:16:15;101606.44;;;11.72;100.00
57056;BME280;42945;51.718;5.324;2023-05-21T02:22:03;101569.88;;;11.77;100.00
57056;BME280;42945;51.718;5.324;2023-05-21T02:31:46;101469.91;;;11.22;100.00
57056;BME280;42945;51.718;5.324;2023-05-21T02:37:35;101567.31;;;11.93;100.00
57056;BME280;42945;51.718;5.324;2023-05-21T02:43:24;101600.75;;;11.97;100.00
57056;BME280;42945;51.718;5.324;2023-05-21T02:49:14;101711.84;;;12.60;100.00
57056;BME280;42945;51.718;5.324;2023-05-21T02:55:03;101601.38;;;11.85;100.00
57056;BME280;42945;51.718;5.324;2023-05-21T03:00:51;101572.66;;;11.74;100.00
57056;BME280;42945;51.718;5.324;2023-05-21T03:06:39;101457.78;;;10.99;100.00
57056;BME280;42945;51.718;5.324;2023-05-21T03:12:26;101604.41;;;11.59;100.00
57056;BME280;42945;51.718;5.324;2023-05-21T03:18:15;101452.97;;;10.71;100.00
57056;BME280;42945;51.718;5.324;2023-05-21T03:24:04;101510.19;;;10.76;100.00
57056;BME280;42945;51.718;5.324;2023-05-21T03:33:48;101478.78;;;10.67;100.00
57056;BME280;42945;51.718;5.324;2023-05-21T03:39:35;101424.41;;;10.76;100.00
57056;BME280;42945;51.718;5.324;2023-05-21T03:45:23;101846.41;;;12.83;100.00
57056;BME280;42945;51.718;5.324;2023-05-21T03:51:10;101567.78;;;11.47;100.00
57056;BME280;42945;51.718;5.324;2023-05-21T03:56:59;101451.78;;;10.95;100.00
57056;BME280;42945;51.718;5.324;2023-05-21T04:02:48;101438.44;;;11.14;100.00
57056;BME280;42945;51.718;5.324;2023-05-21T04:08:36;101548.59;;;11.77;100.00
57056;BME280;42945;51.718;5.324;2023-05-21T04:14:25;101374.84;;;10.59;100.00
57056;BME280;42945;51.718;5.324;2023-05-21T04:20:13;101581.56;;;11.73;100.00
57056;BME280;42945;51.718;5.324;2023-05-21T04:26:03;101553.81;;;11.78;100.00
57056;BME280;42945;51.718;5.324;2023-05-21T04:35:46;101499.81;;;11.78;100.00
57056;BME280;42945;51.718;5.324;2023-05-21T04:41:37;101464.97;;;11.14;100.00
57056;BME280;42945;51.718;5.324;2023-05-21T04:47:25;101572.91;;;11.87;100.00
57056;BME280;42945;51.718;5.324;2023-05-21T04:53:16;101552.66;;;12.01;100.00
57056;BME280;42945;51.718;5.324;2023-05-21T04:59:04;101431.94;;;11.37;100.00
57056;BME280;42945;51.718;5.324;2023-05-21T05:04:53;101533.41;;;12.14;100.00
57056;BME280;42945;51.718;5.324;2023-05-21T05:10:41;101637.25;;;12.28;100.00
57056;BME280;42945;51.718;5.324;2023-05-21T05:16:29;101565.41;;;12.12;100.00
57056;BME280;42945;51.718;5.324;2023-05-21T05:22:17;101580.56;;;12.28;100.00
57056;BME280;42945;51.718;5.324;2023-05-21T05:28:06;101579.44;;;12.32;100.00
57056;BME280;42945;51.718;5.324;2023-05-21T05:37:47;101458.94;;;11.63;100.00
57056;BME280;42945;51.718;5.324;2023-05-21T05:43:35;101573.91;;;12.19;100.00
57056;BME280;42945;51.718;5.324;2023-05-21T05:49:23;101574.53;;;12.24;100.00
57056;BME280;42945;51.718;5.324;2023-05-21T05:55:11;101576.31;;;12.41;100.00
57056;BME280;42945;51.718;5.324;2023-05-21T06:01:00;101569.59;;;12.50;100.00
57056;BME280;42945;51.718;5.324;2023-05-21T06:06:49;101681.66;;;13.44;100.00
57056;BME280;42945;51.718;5.324;2023-05-21T06:12:37;101526.31;;;12.79;100.00
57056;BME280;42945;51.718;5.324;2023-05-21T06:18:25;101648.59;;;12.98;100.00
57056;BME280;42945;51.718;5.324;2023-05-21T06:24:13;101615.78;;;13.14;100.00
57056;BME280;42945;51.718;5.324;2023-05-21T06:30:02;101570.00;;;13.23;100.00
57056;BME280;42945;51.718;5.324;2023-05-21T06:39:25;101447.06;;;12.69;100.00
57056;BME280;42945;51.718;5.324;2023-05-21T06:45:13;101460.53;;;12.82;100.00
57056;BME280;42945;51.718;5.324;2023-05-21T06:51:02;101511.78;;;13.47;100.00
57056;BME280;42945;51.718;5.324;2023-05-21T06:56:50;101556.03;;;13.80;100.00
57056;BME280;42945;51.718;5.324;2023-05-21T07:02:39;101507.03;;;13.97;100.00
57056;BME280;42945;51.718;5.324;2023-05-21T07:08:27;101536.91;;;13.88;100.00
57056;BME280;42945;51.718;5.324;2023-05-21T07:14:15;101531.94;;;13.82;100.00
57056;BME280;42945;51.718;5.324;2023-05-21T07:20:05;101421.50;;;13.86;100.00
57056;BME280;42945;51.718;5.324;2023-05-21T07:25:54;101425.56;;;14.20;100.00
57056;BME280;42945;51.718;5.324;2023-05-21T07:31:42;101543.97;;;14.75;100.00
57056;BME280;42945;51.718;5.324;2023-05-21T07:41:18;101501.34;;;15.15;100.00
57056;BME280;42945;51.718;5.324;2023-05-21T07:47:05;101534.91;;;14.92;100.00
57056;BME280;42945;51.718;5.324;2023-05-21T07:52:54;101384.69;;;14.61;100.00
57056;BME280;42945;51.718;5.324;2023-05-21T07:58:43;101564.31;;;15.86;100.00
57056;BME280;42945;51.718;5.324;2023-05-21T08:04:32;101526.53;;;15.38;100.00
57056;BME280;42945;51.718;5.324;2023-05-21T08:10:20;101393.59;;;15.02;100.00
57056;BME280;42945;51.718;5.324;2023-05-21T08:16:07;101534.78;;;15.88;100.00
57056;BME280;42945;51.718;5.324;2023-05-21T08:21:56;101520.56;;;15.60;100.00
57056;BME280;42945;51.718;5.324;2023-05-21T08:27:45;101462.06;;;16.32;100.00
57056;BME280;42945;51.718;5.324;2023-05-21T08:33:36;101484.22;;;16.34;100.00
57056;BME280;42945;51.718;5.324;2023-05-21T08:43:02;101623.78;;;17.42;100.00
57056;BME280;42945;51.718;5.324;2023-05-21T08:48:51;101384.47;;;16.20;100.00
57056;BME280;42945;51.718;5.324;2023-05-21T08:54:43;101515.66;;;17.42;100.00
57056;BME280;42945;51.718;5.324;2023-05-21T09:00:32;101483.88;;;16.89;100.00
57056;BME280;42945;51.718;5.324;2023-05-21T09:06:21;101491.69;;;17.16;100.00
57056;BME280;42945;51.718;5.324;2023-05-21T09:12:09;101474.63;;;17.64;100.00
57056;BME280;42945;51.718;5.324;2023-05-21T09:17:58;101647.75;;;18.85;100.00
57056;BME280;42945;51.718;5.324;2023-05-21T09:23:45;101498.25;;;17.47;100.00
57056;BME280;42945;51.718;5.324;2023-05-21T09:29:34;101375.81;;;17.12;100.00
57056;BME280;42945;51.718;5.324;2023-05-21T09:35:24;101487.84;;;17.78;100.00
57056;BME280;42945;51.718;5.324;2023-05-21T09:41:13;101353.31;;;17.38;100.00
57056;BME280;42945;51.718;5.324;2023-05-21T09:47:01;101581.41;;;18.86;100.00
57056;BME280;42945;51.718;5.324;2023-05-21T09:52:50;101329.44;;;17.46;100.00
57056;BME280;42945;51.718;5.324;2023-05-21T09:58:42;101591.19;;;18.87;100.00
57056;BME280;42945;51.718;5.324;2023-05-21T10:04:31;101379.53;;;17.79;100.00
57056;BME280;42945;51.718;5.324;2023-05-21T10:10:20;101462.41;;;18.95;100.00
57056;BME280;42945;51.718;5.324;2023-05-21T10:16:10;101318.69;;;18.02;100.00
57056;BME280;42945;51.718;5.324;2023-05-21T10:22:00;101406.75;;;18.75;100.00
57056;BME280;42945;51.718;5.324;2023-05-21T10:27:48;101312.00;;;18.40;100.00
57056;BME280;42945;51.718;5.324;2023-05-21T10:33:36;101413.69;;;19.52;100.00
57056;BME280;42945;51.718;5.324;2023-05-21T10:39:25;101325.88;;;19.41;100.00
57056;BME280;42945;51.718;5.324;2023-05-21T10:51:19;101407.59;;;20.01;100.00
57056;BME280;42945;51.718;5.324;2023-05-21T11:03:21;101377.63;;;20.45;100.00
57056;BME280;42945;51.718;5.324;2023-05-21T11:09:14;101385.16;;;20.32;100.00
57056;BME280;42945;51.718;5.324;2023-05-21T11:15:05;101203.81;;;20.12;100.00
57056;BME280;42945;51.718;5.324;2023-05-21T11:20:55;101488.34;;;22.27;100.00
57056;BME280;42945;51.718;5.324;2023-05-21T11:39:09;101324.28;;;22.19;100.00
57056;BME280;42945;51.718;5.324;2023-05-21T11:45:03;101328.81;;;22.19;100.00
57056;BME280;42945;51.718;5.324;2023-05-21T11:50:52;101359.94;;;22.69;100.00
57056;BME280;42945;51.718;5.324;2023-05-21T11:56:39;101286.72;;;21.06;100.00
57056;BME280;42945;51.718;5.324;2023-05-21T12:02:34;101372.97;;;21.45;100.00
57056;BME280;42945;51.718;5.324;2023-05-21T12:08:23;101301.25;;;22.43;100.00
57056;BME280;42945;51.718;5.324;2023-05-21T12:14:12;101299.31;;;22.35;100.00
57056;BME280;42945;51.718;5.324;2023-05-21T12:20:01;101338.41;;;21.58;100.00
57056;BME280;42945;51.718;5.324;2023-05-21T12:25:54;101319.88;;;22.18;100.00
57056;BME280;42945;51.718;5.324;2023-05-21T12:31:49;101231.03;;;22.15;100.00
57056;BME280;42945;51.718;5.324;2023-05-21T12:37:37;101301.00;;;22.36;100.00
57056;BME280;42945;51.718;5.324;2023-05-21T12:47:23;101266.41;;;22.22;100.00
57056;BME280;42945;51.718;5.324;2023-05-21T12:53:12;101319.91;;;23.16;7.68
57056;BME280;42945;51.718;5.324;2023-05-21T12:58:59;101326.63;;;22.50;100.00
57056;BME280;42945;51.718;5.324;2023-05-21T13:04:52;101294.06;;;22.34;100.00
57056;BME280;42945;51.718;5.324;2023-05-21T13:10:41;101174.81;;;21.93;100.00
57056;BME280;42945;51.718;5.324;2023-05-21T13:16:30;101306.94;;;23.54;100.00
57056;BME280;42945;51.718;5.324;2023-05-21T13:22:19;101340.63;;;22.64;100.00
57056;BME280;42945;51.718;5.324;2023-05-21T13:28:08;101286.59;;;23.16;100.00
57056;BME280;42945;51.718;5.324;2023-05-21T13:34:02;101176.94;;;22.69;100.00
57056;BME280;42945;51.718;5.324;2023-05-21T13:39:51;101400.25;;;24.45;100.00
57056;BME280;42945;51.718;5.324;2023-05-21T13:49:35;101299.34;;;23.92;98.75
57056;BME280;42945;51.718;5.324;2023-05-21T13:55:26;101370.81;;;24.75;97.96
57056;BME280;42945;51.718;5.324;2023-05-21T14:01:14;101178.13;;;23.35;97.85
57056;BME280;42945;51.718;5.324;2023-05-21T14:07:02;101443.03;;;23.83;100.00
57056;BME280;42945;51.718;5.324;2023-05-21T14:12:51;101271.31;;;23.67;100.00
57056;BME280;42945;51.718;5.324;2023-05-21T14:18:39;101136.31;;;23.30;100.00
57056;BME280;42945;51.718;5.324;2023-05-21T14:24:31;101162.31;;;22.80;100.00
57056;BME280;42945;51.718;5.324;2023-05-21T14:30:20;101251.47;;;24.50;100.00
57056;BME280;42945;51.718;5.324;2023-05-21T14:36:10;101354.47;;;24.26;100.00
57056;BME280;42945;51.718;5.324;2023-05-21T14:41:57;101245.03;;;24.68;92.32
57056;BME280;42945;51.718;5.324;2023-05-21T14:51:40;101108.84;;;23.75;91.13
57056;BME280;42945;51.718;5.324;2023-05-21T14:57:30;101257.06;;;24.49;89.68
57056;BME280;42945;51.718;5.324;2023-05-21T15:03:17;101252.63;;;24.89;92.58
57056;BME280;42945;51.718;5.324;2023-05-21T15:09:05;101174.00;;;25.20;92.52
57056;BME280;42945;51.718;5.324;2023-05-21T15:14:53;101217.09;;;25.71;92.65
57056;BME280;42945;51.718;5.324;2023-05-21T15:20:41;101237.59;;;24.70;94.04
57056;BME280;42945;51.718;5.324;2023-05-21T15:26:30;101129.66;;;25.05;90.76
57056;BME280;42945;51.718;5.324;2023-05-21T15:32:18;101296.72;;;26.03;88.60
57056;BME280;42945;51.718;5.324;2023-05-21T15:38:08;101214.19;;;24.28;100.00
57056;BME280;42945;51.718;5.324;2023-05-21T15:43:59;101361.97;;;26.34;93.37
57056;BME280;42945;51.718;5.324;2023-05-21T15:53:42;101216.56;;;24.31;99.48
57056;BME280;42945;51.718;5.324;2023-05-21T15:59:31;101242.06;;;25.27;100.00
57056;BME280;42945;51.718;5.324;2023-05-21T16:05:20;101217.84;;;25.09;98.80
57056;BME280;42945;51.718;5.324;2023-05-21T16:11:07;101213.59;;;25.54;99.09
57056;BME280;42945;51.718;5.324;2023-05-21T16:16:57;101217.34;;;26.30;89.25
57056;BME280;42945;51.718;5.324;2023-05-21T16:22:46;101110.53;;;24.26;100.00
57056;BME280;42945;51.718;5.324;2023-05-21T16:28:35;101119.25;;;24.77;98.15
57056;BME280;42945;51.718;5.324;2023-05-21T16:34:23;101238.47;;;25.34;99.85
57056;BME280;42945;51.718;5.324;2023-05-21T16:40:11;101121.97;;;25.25;97.44
57056;BME280;42945;51.718;5.324;2023-05-21T16:45:59;101208.72;;;25.72;95.49
57056;BME280;42945;51.718;5.324;2023-05-21T16:55:44;101122.53;;;23.74;100.00
57056;BME280;42945;51.718;5.324;2023-05-21T17:01:33;101224.91;;;25.34;100.00
57056;BME280;42945;51.718;5.324;2023-05-21T17:07:21;101270.72;;;23.90;100.00
57056;BME280;42945;51.718;5.324;2023-05-21T17:13:10;101125.63;;;23.20;100.00
57056;BME280;42945;51.718;5.324;2023-05-21T17:18:58;101255.38;;;24.40;100.00
57056;BME280;42945;51.718;5.324;2023-05-21T17:24:46;101127.28;;;24.37;100.00
57056;BME280;42945;51.718;5.324;2023-05-21T17:30:34;101233.66;;;23.98;100.00
57056;BME280;42945;51.718;5.324;2023-05-21T17:36:22;101051.31;;;22.55;100.00
57056;BME280;42945;51.718;5.324;2023-05-21T17:42:11;101128.25;;;23.38;100.00
57056;BME280;42945;51.718;5.324;2023-05-21T17:47:59;101118.69;;;23.85;100.00
57056;BME280;42945;51.718;5.324;2023-05-21T17:57:42;101236.22;;;24.00;100.00
57056;BME280;42945;51.718;5.324;2023-05-21T18:03:31;101265.47;;;22.67;100.00
57056;BME280;42945;51.718;5.324;2023-05-21T18:09:19;101262.66;;;23.29;100.00
57056;BME280;42945;51.718;5.324;2023-05-21T18:15:08;101247.25;;;22.95;100.00
57056;BME280;42945;51.718;5.324;2023-05-21T18:20:57;101125.09;;;21.50;100.00
57056;BME280;42945;51.718;5.324;2023-05-21T18:26:45;101239.25;;;21.60;100.00
57056;BME280;42945;51.718;5.324;2023-05-21T18:32:34;101234.09;;;20.92;100.00
57056;BME280;42945;51.718;5.324;2023-05-21T18:38:26;101278.97;;;20.54;100.00
57056;BME280;42945;51.718;5.324;2023-05-21T18:44:14;101279.53;;;20.38;100.00
57056;BME280;42945;51.718;5.324;2023-05-21T18:50:02;101152.16;;;19.48;100.00
57056;BME280;42945;51.718;5.324;2023-05-21T18:55:50;101226.06;;;19.44;100.00
57056;BME280;42945;51.718;5.324;2023-05-21T19:01:38;101131.63;;;18.87;100.00
57056;BME280;42945;51.718;5.324;2023-05-21T19:07:28;101267.47;;;19.22;100.00
57056;BME280;42945;51.718;5.324;2023-05-21T19:13:28;101266.50;;;18.60;100.00
57056;BME280;42945;51.718;5.324;2023-05-21T19:19:17;101427.56;;;19.26;100.00
57056;BME280;42945;51.718;5.324;2023-05-21T19:25:06;101307.78;;;18.26;100.00
57056;BME280;42945;51.718;5.324;2023-05-21T19:30:57;101248.81;;;17.93;100.00
57056;BME280;42945;51.718;5.324;2023-05-21T19:36:45;101195.16;;;17.15;100.00
57056;BME280;42945;51.718;5.324;2023-05-21T19:42:34;101301.66;;;17.47;100.00
57056;BME280;42945;51.718;5.324;2023-05-21T19:48:22;101340.88;;;17.25;100.00
57056;BME280;42945;51.718;5.324;2023-05-21T19:54:11;101376.31;;;17.29;100.00
57056;BME280;42945;51.718;5.324;2023-05-21T19:59:59;101295.28;;;16.79;100.00
57056;BME280;42945;51.718;5.324;2023-05-21T20:05:47;101289.38;;;16.51;100.00
57056;BME280;42945;51.718;5.324;2023-05-21T20:11:36;101381.78;;;16.57;100.00
57056;BME280;42945;51.718;5.324;2023-05-21T20:17:24;101328.25;;;16.32;100.00
57056;BME280;42945;51.718;5.324;2023-05-21T20:23:15;101337.41;;;16.17;100.00
57056;BME280;42945;51.718;5.324;2023-05-21T20:29:05;101229.22;;;15.34;100.00
57056;BME280;42945;51.718;5.324;2023-05-21T20:34:54;101292.44;;;15.85;100.00
57056;BME280;42945;51.718;5.324;2023-05-21T20:40:44;101360.91;;;15.88;100.00
57056;BME280;42945;51.718;5.324;2023-05-21T20:46:40;101223.69;;;14.86;100.00
57056;BME280;42945;51.718;5.324;2023-05-21T20:52:30;108407.84;;;57.53;100.00
57056;BME280;42945;51.718;5.324;2023-05-21T21:02:20;100974.25;;;15.37;100.00
57056;BME280;42945;51.718;5.324;2023-05-21T21:08:08;101325.75;;;15.17;100.00
57056;BME280;42945;51.718;5.324;2023-05-21T21:13:57;101286.63;;;15.03;100.00
57056;BME280;42945;51.718;5.324;2023-05-21T21:19:44;101324.25;;;15.13;100.00
57056;BME280;42945;51.718;5.324;2023-05-21T21:25:32;101346.25;;;14.91;100.00
57056;BME280;42945;51.718;5.324;2023-05-21T21:31:20;101368.00;;;14.72;100.00
57056;BME280;42945;51.718;5.324;2023-05-21T21:37:08;101306.16;;;14.78;100.00
57056;BME280;42945;51.718;5.324;2023-05-21T21:42:58;101384.50;;;14.64;100.00
57056;BME280;42945;51.718;5.324;2023-05-21T21:48:46;101300.50;;;14.55;100.00
57056;BME280;42945;51.718;5.324;2023-05-21T21:54:35;101356.97;;;14.64;100.00
57056;BME280;42945;51.718;5.324;2023-05-21T22:04:19;101239.44;;;13.84;100.00
57056;BME280;42945;51.718;5.324;2023-05-21T22:10:07;101338.13;;;14.38;100.00
57056;BME280;42945;51.718;5.324;2023-05-21T22:15:55;101379.66;;;14.15;100.00
57056;BME280;42945;51.718;5.324;2023-05-21T22:21:43;101351.72;;;14.21;100.00
57056;BME280;42945;51.718;5.324;2023-05-21T22:27:32;101330.13;;;14.11;100.00
57056;BME280;42945;51.718;5.324;2023-05-21T22:33:21;101516.25;;;14.63;100.00
57056;BME280;42945;51.718;5.324;2023-05-21T22:39:08;101358.19;;;13.89;100.00
57056;BME280;42945;51.718;5.324;2023-05-21T22:44:57;101347.06;;;13.83;100.00
57056;BME280;42945;51.718;5.324;2023-05-21T22:50:45;101365.78;;;13.95;100.00
57056;BME280;42945;51.718;5.324;2023-05-21T22:56:33;101375.13;;;13.74;100.00
57056;BME280;42945;51.718;5.324;2023-05-21T23:06:17;101431.41;;;13.98;100.00
57056;BME280;42945;51.718;5.324;2023-05-21T23:12:06;101258.06;;;13.13;100.00
57056;BME280;42945;51.718;5.324;2023-05-21T23:17:55;101139.75;;;12.31;100.00
57056;BME280;42945;51.718;5.324;2023-05-21T23:23:43;101358.41;;;13.57;100.00
57056;BME280;42945;51.718;5.324;2023-05-21T23:29:35;101274.22;;;12.82;100.00
57056;BME280;42945;51.718;5.324;2023-05-21T23:35:23;101342.00;;;13.35;100.00
57056;BME280;42945;51.718;5.324;2023-05-21T23:41:10;101258.41;;;12.78;100.00
57056;BME280;42945;51.718;5.324;2023-05-21T23:46:59;101374.59;;;13.24;100.00
57056;BME280;42945;51.718;5.324;2023-05-21T23:52:49;101365.56;;;13.27;100.00
57056;BME280;42945;51.718;5.324;2023-05-21T23:58:38;101348.44;;;13.16;100.00
